sensor_id;sensor_type;location;lat;lon;timestamp;pressure;altitude;pressure_sealevel;temperature;humidity
30875;BME280;17581;43.222;27.924;2023-05-02T00:00:00;101344.94;;;12.98;48.99
30875;BME280;17581;43.222;27.924;2023-05-02T00:02:26;101339.06;;;12.93;48.83
30875;BME280;17581;43.222;27.924;2023-05-02T00:04:52;101331.09;;;12.81;49.64
30875;BME280;17581;43.222;27.924;2023-05-02T00:07:17;101319.38;;;12.69;49.60
30875;BME280;17581;43.222;27.924;2023-05-02T00:09:43;101341.84;;;12.70;49.28
30875;BME280;17581;43.222;27.924;2023-05-02T00:12:08;101338.91;;;12.73;49.38
30875;BME280;17581;43.222;27.924;2023-05-02T00:14:34;101333.38;;;12.63;49.22
30875;BME280;17581;43.222;27.924;2023-05-02T00:16:59;101331.91;;;12.70;49.29
30875;BME280;17581;43.222;27.924;2023-05-02T00:19:25;101346.66;;;12.77;49.20
30875;BME280;17581;43.222;27.924;2023-05-02T00:21:50;101344.44;;;12.71;48.87
30875;BME280;17581;43.222;27.924;2023-05-02T00:24:18;101350.47;;;12.75;49.15
30875;BME280;17581;43.222;27.924;2023-05-02T00:26:44;101348.09;;;12.70;49.06
30875;BME280;17581;43.222;27.924;2023-05-02T00:29:10;101347.72;;;12.64;48.93
30875;BME280;17581;43.222;27.924;2023-05-02T00:31:35;101350.19;;;12.55;48.95
30875;BME280;17581;43.222;27.924;2023-05-02T00:34:01;101354.94;;;12.52;48.41
30875;BME280;17581;43.222;27.924;2023-05-02T00:36:26;101348.34;;;12.56;48.27
30875;BME280;17581;43.222;27.924;2023-05-02T00:38:52;101351.53;;;12.61;48.10
30875;BME280;17581;43.222;27.924;2023-05-02T00:41:17;101362.09;;;12.64;48.46
30875;BME280;17581;43.222;27.924;2023-05-02T00:43:43;101339.63;;;12.52;47.81
30875;BME280;17581;43.222;27.924;2023-05-02T00:46:08;101352.78;;;12.68;47.84
30875;BME280;17581;43.222;27.924;2023-05-02T00:48:36;101354.50;;;12.80;47.79
30875;BME280;17581;43.222;27.924;2023-05-02T00:51:03;101354.75;;;12.77;47.63
30875;BME280;17581;43.222;27.924;2023-05-02T00:53:33;101339.53;;;12.65;47.83
30875;BME280;17581;43.222;27.924;2023-05-02T00:56:00;101356.22;;;12.81;48.06
30875;BME280;17581;43.222;27.924;2023-05-02T00:58:26;101345.41;;;12.81;47.59
30875;BME280;17581;43.222;27.924;2023-05-02T01:01:03;101340.88;;;12.82;47.49
30875;BME280;17581;43.222;27.924;2023-05-02T01:06:35;101347.91;;;12.95;47.32
30875;BME280;17581;43.222;27.924;2023-05-02T01:09:22;101348.63;;;12.86;47.58
30875;BME280;17581;43.222;27.924;2023-05-02T01:12:01;101339.19;;;12.81;48.06
30875;BME280;17581;43.222;27.924;2023-05-02T01:14:32;101335.38;;;12.83;47.72
30875;BME280;17581;43.222;27.924;2023-05-02T01:17:02;101342.94;;;12.78;47.93
30875;BME280;17581;43.222;27.924;2023-05-02T01:19:35;101343.09;;;12.77;46.95
30875;BME280;17581;43.222;27.924;2023-05-02T01:22:06;101341.75;;;12.82;47.29
30875;BME280;17581;43.222;27.924;2023-05-02T01:30:14;101338.78;;;12.63;47.92
30875;BME280;17581;43.222;27.924;2023-05-02T01:32:44;101351.06;;;12.67;47.67
30875;BME280;17581;43.222;27.924;2023-05-02T01:35:13;101351.53;;;12.72;47.62
30875;BME280;17581;43.222;27.924;2023-05-02T01:37:42;101336.34;;;12.71;47.43
30875;BME280;17581;43.222;27.924;2023-05-02T01:40:09;101329.94;;;12.72;48.01
30875;BME280;17581;43.222;27.924;2023-05-02T01:42:37;101343.72;;;12.80;47.75
30875;BME280;17581;43.222;27.924;2023-05-02T01:45:04;101339.41;;;12.78;47.97
30875;BME280;17581;43.222;27.924;2023-05-02T01:47:32;101336.97;;;12.86;47.65
30875;BME280;17581;43.222;27.924;2023-05-02T01:50:00;101348.38;;;12.89;47.40
30875;BME280;17581;43.222;27.924;2023-05-02T01:52:27;101324.53;;;12.72;47.40
30875;BME280;17581;43.222;27.924;2023-05-02T01:54:56;101335.09;;;12.75;47.44
30875;BME280;17581;43.222;27.924;2023-05-02T01:57:23;101341.25;;;12.77;47.34
30875;BME280;17581;43.222;27.924;2023-05-02T01:59:49;101335.13;;;12.86;47.55
30875;BME280;17581;43.222;27.924;2023-05-02T02:02:16;101337.81;;;12.86;47.78
30875;BME280;17581;43.222;27.924;2023-05-02T02:04:43;101330.59;;;12.87;47.62
30875;BME280;17581;43.222;27.924;2023-05-02T02:07:12;101334.13;;;12.87;47.74
30875;BME280;17581;43.222;27.924;2023-05-02T02:09:37;101341.13;;;13.01;47.71
30875;BME280;17581;43.222;27.924;2023-05-02T02:17:38;101341.28;;;12.99;47.09
30875;BME280;17581;43.222;27.924;2023-05-02T02:20:07;101342.97;;;12.89;46.92
30875;BME280;17581;43.222;27.924;2023-05-02T02:22:36;101347.38;;;12.90;46.80
30875;BME280;17581;43.222;27.924;2023-05-02T02:25:05;101337.31;;;12.81;47.11
30875;BME280;17581;43.222;27.924;2023-05-02T02:27:32;101348.59;;;12.75;47.26
30875;BME280;17581;43.222;27.924;2023-05-02T02:29:58;101354.75;;;12.77;46.61
30875;BME280;17581;43.222;27.924;2023-05-02T02:32:23;101359.88;;;12.69;47.36
30875;BME280;17581;43.222;27.924;2023-05-02T02:34:49;101340.75;;;12.72;47.15
30875;BME280;17581;43.222;27.924;2023-05-02T02:37:18;101361.25;;;12.75;46.50
30875;BME280;17581;43.222;27.924;2023-05-02T02:39:57;101359.41;;;12.75;46.22
30875;BME280;17581;43.222;27.924;2023-05-02T02:42:38;101359.28;;;12.77;46.46
30875;BME280;17581;43.222;27.924;2023-05-02T02:45:22;101361.75;;;12.80;46.12
30875;BME280;17581;43.222;27.924;2023-05-02T02:47:55;101351.69;;;12.82;46.55
30875;BME280;17581;43.222;27.924;2023-05-02T02:53:59;101352.44;;;12.95;46.03
30875;BME280;17581;43.222;27.924;2023-05-02T02:56:31;101358.94;;;12.92;46.55
30875;BME280;17581;43.222;27.924;2023-05-02T02:59:23;101367.28;;;12.89;46.77
30875;BME280;17581;43.222;27.924;2023-05-02T03:02:04;101365.06;;;12.83;46.86
30875;BME280;17581;43.222;27.924;2023-05-02T03:04:33;101362.47;;;12.71;47.18
30875;BME280;17581;43.222;27.924;2023-05-02T03:06:59;101370.69;;;12.69;47.54
30875;BME280;17581;43.222;27.924;2023-05-02T03:09:26;101374.84;;;12.62;47.75
30875;BME280;17581;43.222;27.924;2023-05-02T03:11:55;101361.06;;;12.43;47.70
30875;BME280;17581;43.222;27.924;2023-05-02T03:14:21;101371.84;;;12.43;47.59
30875;BME280;17581;43.222;27.924;2023-05-02T03:16:46;101373.28;;;12.36;47.30
30875;BME280;17581;43.222;27.924;2023-05-02T03:19:12;101377.22;;;12.32;47.68
30875;BME280;17581;43.222;27.924;2023-05-02T03:21:37;101374.53;;;12.32;48.06
30875;BME280;17581;43.222;27.924;2023-05-02T03:24:03;101369.59;;;12.26;48.34
30875;BME280;17581;43.222;27.924;2023-05-02T03:26:29;101378.81;;;12.34;48.27
30875;BME280;17581;43.222;27.924;2023-05-02T03:28:55;101382.63;;;12.32;47.94
30875;BME280;17581;43.222;27.924;2023-05-02T03:31:21;101393.66;;;12.29;48.56
30875;BME280;17581;43.222;27.924;2023-05-02T03:33:47;101400.00;;;12.28;49.04
30875;BME280;17581;43.222;27.924;2023-05-02T03:36:13;101402.56;;;12.29;49.18
30875;BME280;17581;43.222;27.924;2023-05-02T03:38:39;101400.88;;;12.28;49.44
30875;BME280;17581;43.222;27.924;2023-05-02T03:41:04;101403.34;;;12.31;49.26
30875;BME280;17581;43.222;27.924;2023-05-02T03:43:30;101408.84;;;12.30;49.19
30875;BME280;17581;43.222;27.924;2023-05-02T03:45:56;101404.66;;;12.26;49.49
30875;BME280;17581;43.222;27.924;2023-05-02T03:48:21;101414.84;;;12.33;49.20
30875;BME280;17581;43.222;27.924;2023-05-02T03:50:47;101420.50;;;12.30;49.28
30875;BME280;17581;43.222;27.924;2023-05-02T03:53:13;101417.91;;;12.29;49.72
30875;BME280;17581;43.222;27.924;2023-05-02T03:55:41;101426.03;;;12.29;50.04
30875;BME280;17581;43.222;27.924;2023-05-02T03:58:07;101433.09;;;12.30;50.19
30875;BME280;17581;43.222;27.924;2023-05-02T04:00:33;101424.78;;;12.33;50.01
30875;BME280;17581;43.222;27.924;2023-05-02T04:03:01;101448.09;;;12.34;50.24
30875;BME280;17581;43.222;27.924;2023-05-02T04:05:27;101435.81;;;12.30;50.37
30875;BME280;17581;43.222;27.924;2023-05-02T04:07:53;101424.75;;;12.22;50.71
30875;BME280;17581;43.222;27.924;2023-05-02T04:10:18;101441.38;;;12.39;50.02
30875;BME280;17581;43.222;27.924;2023-05-02T04:12:44;101442.97;;;12.42;49.97
30875;BME280;17581;43.222;27.924;2023-05-02T04:15:10;101436.38;;;12.46;50.56
30875;BME280;17581;43.222;27.924;2023-05-02T04:17:36;101429.38;;;12.43;50.89
30875;BME280;17581;43.222;27.924;2023-05-02T04:20:01;101427.31;;;12.47;50.67
30875;BME280;17581;43.222;27.924;2023-05-02T04:22:27;101434.09;;;12.64;50.64
30875;BME280;17581;43.222;27.924;2023-05-02T04:24:53;101425.50;;;12.59;50.83
30875;BME280;17581;43.222;27.924;2023-05-02T04:27:18;101431.44;;;12.75;49.86
30875;BME280;17581;43.222;27.924;2023-05-02T04:29:47;101436.72;;;12.87;50.12
30875;BME280;17581;43.222;27.924;2023-05-02T04:32:12;101422.63;;;12.95;50.15
30875;BME280;17581;43.222;27.924;2023-05-02T04:34:38;101414.78;;;13.03;49.81
30875;BME280;17581;43.222;27.924;2023-05-02T04:37:03;101428.72;;;13.21;49.58
30875;BME280;17581;43.222;27.924;2023-05-02T04:39:28;101429.44;;;13.34;49.48
30875;BME280;17581;43.222;27.924;2023-05-02T04:41:54;101419.63;;;13.44;49.63
30875;BME280;17581;43.222;27.924;2023-05-02T04:44:20;101425.75;;;13.57;49.31
30875;BME280;17581;43.222;27.924;2023-05-02T04:46:45;101422.06;;;13.69;48.98
30875;BME280;17581;43.222;27.924;2023-05-02T04:49:10;101425.69;;;13.79;48.67
30875;BME280;17581;43.222;27.924;2023-05-02T04:51:36;101414.63;;;13.93;48.31
30875;BME280;17581;43.222;27.924;2023-05-02T04:54:01;101434.94;;;14.19;48.00
30875;BME280;17581;43.222;27.924;2023-05-02T04:56:27;101435.66;;;14.33;47.95
30875;BME280;17581;43.222;27.924;2023-05-02T04:58:52;101430.34;;;14.42;47.68
30875;BME280;17581;43.222;27.924;2023-05-02T05:01:18;101433.84;;;14.54;47.87
30875;BME280;17581;43.222;27.924;2023-05-02T05:03:43;101443.63;;;14.66;47.54
30875;BME280;17581;43.222;27.924;2023-05-02T05:06:09;101435.16;;;14.80;47.62
30875;BME280;17581;43.222;27.924;2023-05-02T05:08:34;101434.63;;;14.86;47.38
30875;BME280;17581;43.222;27.924;2023-05-02T05:11:00;101442.78;;;15.07;46.99
30875;BME280;17581;43.222;27.924;2023-05-02T05:13:26;101454.66;;;15.15;47.07
30875;BME280;17581;43.222;27.924;2023-05-02T05:15:52;101444.53;;;15.17;46.87
30875;BME280;17581;43.222;27.924;2023-05-02T05:18:18;101439.13;;;15.17;46.90
30875;BME280;17581;43.222;27.924;2023-05-02T05:20:43;101448.34;;;15.36;46.62
30875;BME280;17581;43.222;27.924;2023-05-02T05:23:09;101454.31;;;15.50;46.37
30875;BME280;17581;43.222;27.924;2023-05-02T05:25:34;101458.47;;;15.64;46.03
30875;BME280;17581;43.222;27.924;2023-05-02T05:28:00;101463.66;;;15.76;46.02
30875;BME280;17581;43.222;27.924;2023-05-02T05:30:25;101465.94;;;15.81;45.76
30875;BME280;17581;43.222;27.924;2023-05-02T05:32:51;101468.56;;;15.92;45.65
30875;BME280;17581;43.222;27.924;2023-05-02T05:35:17;101469.44;;;15.93;45.23
30875;BME280;17581;43.222;27.924;2023-05-02T05:37:42;101463.75;;;16.05;44.79
30875;BME280;17581;43.222;27.924;2023-05-02T05:40:09;101472.34;;;16.20;44.30
30875;BME280;17581;43.222;27.924;2023-05-02T05:42:35;101470.34;;;16.31;43.89
30875;BME280;17581;43.222;27.924;2023-05-02T05:45:00;101471.53;;;16.39;43.42
30875;BME280;17581;43.222;27.924;2023-05-02T05:47:26;101474.78;;;16.52;43.47
30875;BME280;17581;43.222;27.924;2023-05-02T05:49:55;101471.84;;;16.64;43.18
30875;BME280;17581;43.222;27.924;2023-05-02T05:52:20;101477.69;;;16.79;43.14
30875;BME280;17581;43.222;27.924;2023-05-02T05:54:46;101479.53;;;16.88;42.58
30875;BME280;17581;43.222;27.924;2023-05-02T05:57:12;101474.38;;;17.04;42.36
30875;BME280;17581;43.222;27.924;2023-05-02T05:59:37;101472.59;;;17.22;42.08
30875;BME280;17581;43.222;27.924;2023-05-02T06:02:03;101474.00;;;17.36;42.38
30875;BME280;17581;43.222;27.924;2023-05-02T06:04:29;101474.88;;;17.36;42.66
30875;BME280;17581;43.222;27.924;2023-05-02T06:06:54;101478.28;;;17.38;42.40
30875;BME280;17581;43.222;27.924;2023-05-02T06:09:20;101462.88;;;17.29;42.73
30875;BME280;17581;43.222;27.924;2023-05-02T06:11:45;101481.88;;;17.39;43.26
30875;BME280;17581;43.222;27.924;2023-05-02T06:14:11;101469.97;;;17.40;44.43
30875;BME280;17581;43.222;27.924;2023-05-02T06:16:36;101472.81;;;17.58;44.94
30875;BME280;17581;43.222;27.924;2023-05-02T06:19:01;101465.59;;;17.76;44.62
30875;BME280;17581;43.222;27.924;2023-05-02T06:21:27;101467.75;;;17.72;44.60
30875;BME280;17581;43.222;27.924;2023-05-02T06:23:52;101467.19;;;17.69;44.95
30875;BME280;17581;43.222;27.924;2023-05-02T06:26:18;101478.41;;;17.83;45.51
30875;BME280;17581;43.222;27.924;2023-05-02T06:28:43;101470.72;;;17.79;45.79
30875;BME280;17581;43.222;27.924;2023-05-02T06:31:09;101466.38;;;17.86;45.26
30875;BME280;17581;43.222;27.924;2023-05-02T06:33:34;101473.22;;;17.90;44.44
30875;BME280;17581;43.222;27.924;2023-05-02T06:36:01;101494.41;;;17.96;45.53
30875;BME280;17581;43.222;27.924;2023-05-02T06:38:27;101488.69;;;17.89;46.94
30875;BME280;17581;43.222;27.924;2023-05-02T06:40:52;101489.88;;;17.87;47.37
30875;BME280;17581;43.222;27.924;2023-05-02T06:43:18;101490.97;;;17.94;47.69
30875;BME280;17581;43.222;27.924;2023-05-02T06:45:44;101460.53;;;17.81;48.00
30875;BME280;17581;43.222;27.924;2023-05-02T06:48:10;101499.88;;;17.86;48.33
30875;BME280;17581;43.222;27.924;2023-05-02T06:50:36;101503.38;;;17.79;47.02
30875;BME280;17581;43.222;27.924;2023-05-02T06:53:02;101505.63;;;17.83;46.72
30875;BME280;17581;43.222;27.924;2023-05-02T06:55:28;101505.03;;;17.89;46.58
30875;BME280;17581;43.222;27.924;2023-05-02T06:57:53;101505.88;;;17.90;45.65
30875;BME280;17581;43.222;27.924;2023-05-02T07:00:20;101506.78;;;17.81;44.64
30875;BME280;17581;43.222;27.924;2023-05-02T07:02:46;101506.75;;;17.90;44.48
30875;BME280;17581;43.222;27.924;2023-05-02T07:05:12;101507.19;;;17.86;43.89
30875;BME280;17581;43.222;27.924;2023-05-02T07:07:40;101509.63;;;17.89;45.90
30875;BME280;17581;43.222;27.924;2023-05-02T07:10:06;101517.41;;;17.74;47.22
30875;BME280;17581;43.222;27.924;2023-05-02T07:12:32;101523.69;;;17.84;46.68
30875;BME280;17581;43.222;27.924;2023-05-02T07:14:57;101513.72;;;17.66;47.14
30875;BME280;17581;43.222;27.924;2023-05-02T07:17:23;101513.72;;;17.66;47.42
30875;BME280;17581;43.222;27.924;2023-05-02T07:19:49;101530.63;;;17.69;45.88
30875;BME280;17581;43.222;27.924;2023-05-02T07:22:15;101531.03;;;17.74;43.90
30875;BME280;17581;43.222;27.924;2023-05-02T07:24:41;101521.91;;;17.66;42.38
30875;BME280;17581;43.222;27.924;2023-05-02T07:27:11;101532.28;;;17.80;43.28
30875;BME280;17581;43.222;27.924;2023-05-02T07:29:36;101529.88;;;17.77;43.19
30875;BME280;17581;43.222;27.924;2023-05-02T07:32:02;101517.88;;;17.70;42.62
30875;BME280;17581;43.222;27.924;2023-05-02T07:34:28;101541.47;;;17.79;43.10
30875;BME280;17581;43.222;27.924;2023-05-02T07:36:54;101544.88;;;17.90;42.44
30875;BME280;17581;43.222;27.924;2023-05-02T07:39:20;101544.09;;;17.98;42.14
30875;BME280;17581;43.222;27.924;2023-05-02T07:41:46;101538.34;;;18.01;41.79
30875;BME280;17581;43.222;27.924;2023-05-02T07:44:11;101535.13;;;17.88;41.34
30875;BME280;17581;43.222;27.924;2023-05-02T07:46:36;101545.34;;;18.13;41.58
30875;BME280;17581;43.222;27.924;2023-05-02T07:49:02;101548.53;;;18.26;40.55
30875;BME280;17581;43.222;27.924;2023-05-02T07:51:28;101550.34;;;18.35;39.59
30875;BME280;17581;43.222;27.924;2023-05-02T07:53:53;101551.31;;;18.17;38.92
30875;BME280;17581;43.222;27.924;2023-05-02T07:56:25;101547.34;;;18.11;38.30
30875;BME280;17581;43.222;27.924;2023-05-02T07:58:50;101553.00;;;18.27;38.81
30875;BME280;17581;43.222;27.924;2023-05-02T08:01:16;101548.78;;;18.33;38.09
30875;BME280;17581;43.222;27.924;2023-05-02T08:03:43;101547.31;;;18.38;37.95
30875;BME280;17581;43.222;27.924;2023-05-02T08:06:09;101549.13;;;18.47;37.04
30875;BME280;17581;43.222;27.924;2023-05-02T08:08:34;101552.31;;;18.53;36.58
30875;BME280;17581;43.222;27.924;2023-05-02T08:11:00;101530.81;;;18.50;36.35
30875;BME280;17581;43.222;27.924;2023-05-02T08:13:26;101546.84;;;18.53;35.45
30875;BME280;17581;43.222;27.924;2023-05-02T08:15:51;101543.69;;;18.47;34.61
30875;BME280;17581;43.222;27.924;2023-05-02T08:18:24;101534.22;;;18.52;35.21
30875;BME280;17581;43.222;27.924;2023-05-02T08:20:50;101546.16;;;18.68;35.53
30875;BME280;17581;43.222;27.924;2023-05-02T08:23:16;101553.94;;;18.81;35.61
30875;BME280;17581;43.222;27.924;2023-05-02T08:25:41;101558.38;;;18.99;35.72
30875;BME280;17581;43.222;27.924;2023-05-02T08:28:07;101554.78;;;18.99;35.37
30875;BME280;17581;43.222;27.924;2023-05-02T08:30:32;101543.25;;;19.05;34.98
30875;BME280;17581;43.222;27.924;2023-05-02T08:32:58;101552.53;;;19.12;35.33
30875;BME280;17581;43.222;27.924;2023-05-02T08:35:23;101549.34;;;19.17;35.35
30875;BME280;17581;43.222;27.924;2023-05-02T08:37:49;101563.22;;;19.23;34.35
30875;BME280;17581;43.222;27.924;2023-05-02T08:40:16;101549.16;;;19.18;35.10
30875;BME280;17581;43.222;27.924;2023-05-02T08:42:42;101542.94;;;19.26;34.92
30875;BME280;17581;43.222;27.924;2023-05-02T08:45:12;101549.84;;;19.38;34.86
30875;BME280;17581;43.222;27.924;2023-05-02T08:47:41;101543.25;;;19.40;32.52
30875;BME280;17581;43.222;27.924;2023-05-02T08:50:08;101551.97;;;19.26;31.03
30875;BME280;17581;43.222;27.924;2023-05-02T08:52:35;101558.16;;;19.11;32.50
30875;BME280;17581;43.222;27.924;2023-05-02T08:55:01;101549.03;;;19.02;33.42
30875;BME280;17581;43.222;27.924;2023-05-02T08:57:28;101550.03;;;19.19;33.85
30875;BME280;17581;43.222;27.924;2023-05-02T08:59:55;101546.28;;;19.20;33.08
30875;BME280;17581;43.222;27.924;2023-05-02T09:05:18;101545.91;;;18.97;32.75
30875;BME280;17581;43.222;27.924;2023-05-02T09:07:45;101537.28;;;18.84;32.52
30875;BME280;17581;43.222;27.924;2023-05-02T09:10:12;101554.47;;;19.02;32.75
30875;BME280;17581;43.222;27.924;2023-05-02T09:12:37;101550.97;;;19.10;32.67
30875;BME280;17581;43.222;27.924;2023-05-02T09:15:14;101549.88;;;19.20;32.82
30875;BME280;17581;43.222;27.924;2023-05-02T09:17:44;101541.72;;;19.20;33.66
30875;BME280;17581;43.222;27.924;2023-05-02T09:20:12;101553.03;;;19.33;33.99
30875;BME280;17581;43.222;27.924;2023-05-02T09:22:37;101552.66;;;19.28;35.14
30875;BME280;17581;43.222;27.924;2023-05-02T09:25:06;101548.41;;;19.26;34.84
30875;BME280;17581;43.222;27.924;2023-05-02T09:27:48;101535.31;;;19.12;35.37
30875;BME280;17581;43.222;27.924;2023-05-02T09:30:23;101551.03;;;19.35;34.38
30875;BME280;17581;43.222;27.924;2023-05-02T09:32:50;101551.16;;;19.34;34.67
30875;BME280;17581;43.222;27.924;2023-05-02T09:35:16;101553.66;;;19.27;34.19
30875;BME280;17581;43.222;27.924;2023-05-02T09:37:55;101553.66;;;19.27;35.48
30875;BME280;17581;43.222;27.924;2023-05-02T09:40:21;101538.56;;;19.15;34.88
30875;BME280;17581;43.222;27.924;2023-05-02T09:42:47;101556.72;;;19.24;36.17
30875;BME280;17581;43.222;27.924;2023-05-02T09:45:23;101546.38;;;19.10;35.16
30875;BME280;17581;43.222;27.924;2023-05-02T09:47:49;101552.53;;;19.12;34.63
30875;BME280;17581;43.222;27.924;2023-05-02T09:50:44;101556.72;;;19.24;34.46
30875;BME280;17581;43.222;27.924;2023-05-02T09:53:10;101554.06;;;19.32;35.13
30875;BME280;17581;43.222;27.924;2023-05-02T09:55:36;101539.66;;;19.40;35.14
30875;BME280;17581;43.222;27.924;2023-05-02T09:58:01;101545.88;;;19.32;34.45
30875;BME280;17581;43.222;27.924;2023-05-02T10:00:43;101543.88;;;19.17;35.61
30875;BME280;17581;43.222;27.924;2023-05-02T10:03:10;101545.34;;;19.29;37.42
30875;BME280;17581;43.222;27.924;2023-05-02T10:05:39;101532.34;;;19.23;38.04
30875;BME280;17581;43.222;27.924;2023-05-02T10:08:06;101540.63;;;19.39;36.21
30875;BME280;17581;43.222;27.924;2023-05-02T10:10:35;101542.59;;;19.46;38.24
30875;BME280;17581;43.222;27.924;2023-05-02T10:13:03;101547.47;;;19.61;39.23
30875;BME280;17581;43.222;27.924;2023-05-02T10:15:30;101533.56;;;19.72;38.42
30875;BME280;17581;43.222;27.924;2023-05-02T10:17:58;101537.22;;;19.88;36.16
30875;BME280;17581;43.222;27.924;2023-05-02T10:20:34;101542.75;;;20.04;37.50
30875;BME280;17581;43.222;27.924;2023-05-02T10:23:02;101530.97;;;20.04;34.37
30875;BME280;17581;43.222;27.924;2023-05-02T10:25:28;101538.09;;;19.97;36.09
30875;BME280;17581;43.222;27.924;2023-05-02T10:27:57;101546.63;;;19.94;37.14
30875;BME280;17581;43.222;27.924;2023-05-02T10:30:24;101532.16;;;20.01;35.30
30875;BME280;17581;43.222;27.924;2023-05-02T10:32:51;101552.06;;;20.20;36.36
30875;BME280;17581;43.222;27.924;2023-05-02T10:35:18;101540.91;;;20.05;37.66
30875;BME280;17581;43.222;27.924;2023-05-02T10:37:45;101550.50;;;20.17;37.23
30875;BME280;17581;43.222;27.924;2023-05-02T10:40:12;101532.91;;;19.78;36.74
30875;BME280;17581;43.222;27.924;2023-05-02T10:42:39;101537.44;;;19.95;37.29
30875;BME280;17581;43.222;27.924;2023-05-02T10:45:33;101536.19;;;20.23;35.45
30875;BME280;17581;43.222;27.924;2023-05-02T10:48:19;101543.44;;;20.40;35.50
30875;BME280;17581;43.222;27.924;2023-05-02T10:50:47;101539.69;;;20.41;33.79
30875;BME280;17581;43.222;27.924;2023-05-02T10:53:34;101547.56;;;20.52;33.68
30875;BME280;17581;43.222;27.924;2023-05-02T10:56:17;101544.16;;;20.58;34.46
30875;BME280;17581;43.222;27.924;2023-05-02T10:58:49;101553.09;;;20.69;34.48
30875;BME280;17581;43.222;27.924;2023-05-02T11:04:12;101537.38;;;20.95;33.44
30875;BME280;17581;43.222;27.924;2023-05-02T11:11:56;101531.09;;;21.43;31.79
30875;BME280;17581;43.222;27.924;2023-05-02T11:24:44;101526.63;;;21.01;31.65
30875;BME280;17581;43.222;27.924;2023-05-02T11:30:06;101527.88;;;21.31;30.53
30875;BME280;17581;43.222;27.924;2023-05-02T11:35:24;101515.66;;;21.50;29.55
30875;BME280;17581;43.222;27.924;2023-05-02T11:38:08;101520.31;;;21.41;30.96
30875;BME280;17581;43.222;27.924;2023-05-02T11:40:34;101524.09;;;21.32;31.04
30875;BME280;17581;43.222;27.924;2023-05-02T11:43:00;101525.78;;;21.41;31.17
30875;BME280;17581;43.222;27.924;2023-05-02T11:45:36;101528.53;;;21.33;32.00
30875;BME280;17581;43.222;27.924;2023-05-02T11:48:05;101533.69;;;21.12;31.65
30875;BME280;17581;43.222;27.924;2023-05-02T11:50:32;101529.25;;;21.19;31.42
30875;BME280;17581;43.222;27.924;2023-05-02T11:52:57;101522.53;;;20.97;30.87
30875;BME280;17581;43.222;27.924;2023-05-02T11:55:23;101521.31;;;20.92;31.72
30875;BME280;17581;43.222;27.924;2023-05-02T11:57:48;101520.66;;;20.82;31.61
30875;BME280;17581;43.222;27.924;2023-05-02T12:00:14;101523.19;;;20.83;31.84
30875;BME280;17581;43.222;27.924;2023-05-02T12:02:44;101522.84;;;20.86;31.70
30875;BME280;17581;43.222;27.924;2023-05-02T12:05:11;101525.75;;;21.01;33.75
30875;BME280;17581;43.222;27.924;2023-05-02T12:07:42;101531.22;;;21.01;32.37
30875;BME280;17581;43.222;27.924;2023-05-02T12:10:09;101535.03;;;21.16;31.97
30875;BME280;17581;43.222;27.924;2023-05-02T12:12:35;101523.38;;;21.38;32.61
30875;BME280;17581;43.222;27.924;2023-05-02T12:15:11;101527.63;;;21.57;32.62
30875;BME280;17581;43.222;27.924;2023-05-02T12:17:41;101517.88;;;21.62;31.64
30875;BME280;17581;43.222;27.924;2023-05-02T12:20:08;101518.22;;;21.67;31.80
30875;BME280;17581;43.222;27.924;2023-05-02T12:22:34;101533.75;;;21.83;30.90
30875;BME280;17581;43.222;27.924;2023-05-02T12:25:00;101519.56;;;21.71;29.86
30875;BME280;17581;43.222;27.924;2023-05-02T12:27:28;101519.25;;;21.58;30.32
30875;BME280;17581;43.222;27.924;2023-05-02T12:29:53;101507.97;;;21.53;31.02
30875;BME280;17581;43.222;27.924;2023-05-02T12:32:30;101499.91;;;21.60;29.83
30875;BME280;17581;43.222;27.924;2023-05-02T12:34:56;101500.25;;;21.57;30.32
30875;BME280;17581;43.222;27.924;2023-05-02T12:37:23;101513.25;;;21.71;30.37
30875;BME280;17581;43.222;27.924;2023-05-02T12:39:49;101499.16;;;21.90;29.89
30875;BME280;17581;43.222;27.924;2023-05-02T12:42:16;101511.22;;;22.12;29.38
30875;BME280;17581;43.222;27.924;2023-05-02T12:44:44;101506.28;;;22.07;29.03
30875;BME280;17581;43.222;27.924;2023-05-02T12:47:11;101498.31;;;21.82;28.53
30875;BME280;17581;43.222;27.924;2023-05-02T12:49:49;101498.97;;;21.84;27.89
30875;BME280;17581;43.222;27.924;2023-05-02T12:52:19;101502.63;;;21.68;28.32
30875;BME280;17581;43.222;27.924;2023-05-02T12:54:45;101502.13;;;21.64;29.01
30875;BME280;17581;43.222;27.924;2023-05-02T12:57:21;101498.34;;;21.65;28.80
30875;BME280;17581;43.222;27.924;2023-05-02T12:59:50;101486.94;;;21.46;29.36
30875;BME280;17581;43.222;27.924;2023-05-02T13:02:17;101492.25;;;21.39;28.59
30875;BME280;17581;43.222;27.924;2023-05-02T13:04:42;101495.47;;;21.51;28.74
30875;BME280;17581;43.222;27.924;2023-05-02T13:07:08;101496.47;;;21.74;29.00
30875;BME280;17581;43.222;27.924;2023-05-02T13:09:33;101492.00;;;21.89;28.74
30875;BME280;17581;43.222;27.924;2023-05-02T13:11:59;101498.09;;;21.99;28.96
30875;BME280;17581;43.222;27.924;2023-05-02T13:14:25;101480.06;;;22.13;27.57
30875;BME280;17581;43.222;27.924;2023-05-02T13:16:50;101484.25;;;21.93;27.91
30875;BME280;17581;43.222;27.924;2023-05-02T13:19:22;101493.50;;;21.92;28.53
30875;BME280;17581;43.222;27.924;2023-05-02T13:21:47;101485.28;;;21.84;28.08
30875;BME280;17581;43.222;27.924;2023-05-02T13:24:13;101498.13;;;21.91;29.09
30875;BME280;17581;43.222;27.924;2023-05-02T13:26:39;101488.00;;;22.00;28.74